Time;durP1;ratioP1;P1;durP2;ratioP2;P2;SDS_P1;SDS_P2;PMS_P1;PMS_P2;Temp;Humidity;BMP_temperature;BMP_pressure;BME280_temperature;BME280_humidity;BME280_pressure;Samples;Min_cycle;Max_cycle;Signal;HPM_P1;HPM_P2
2023/09/16 00:14:42;;;;;;;23.60;12.85;;;;;;;21.38;100.00;100420.41;31472374;28;20080;-78
2023/09/16 00:29:44;;;;;;;27.52;14.07;;;;;;;21.13;100.00;100439.66;31480350;28;20115;-76
2023/09/16 00:44:46;;;;;;;20.70;11.63;;;;;;;20.97;100.00;100438.97;31472837;28;20049;-77
2023/09/16 00:59:48;;;;;;;18.73;10.65;;;;;;;21.04;100.00;100470.88;31473258;28;20079;-75
2023/09/16 01:14:50;;;;;;;13.30;8.88;;;;;;;21.01;100.00;100483.69;31474973;28;20092;-78
2023/09/16 01:29:53;;;;;;;17.25;9.90;;;;;;;21.00;100.00;100498.72;31475153;28;20057;-76
2023/09/16 01:44:55;;;;;;;12.23;7.32;;;;;;;20.85;100.00;100525.56;31474270;28;20496;-75
2023/09/16 01:59:57;;;;;;;12.88;7.15;;;;;;;20.55;100.00;100535.88;31492675;28;20482;-77
2023/09/16 02:14:59;;;;;;;13.93;8.23;;;;;;;20.15;100.00;100558.47;31495879;28;20052;-76
2023/09/16 02:30:01;;;;;;;16.10;8.95;;;;;;;20.25;100.00;100559.16;31490771;28;20147;-78
2023/09/16 02:45:04;;;;;;;16.40;9.32;;;;;;;19.97;100.00;100564.91;31491918;28;20052;-76
2023/09/16 03:00:07;;;;;;;15.15;9.80;;;;;;;19.79;100.00;100589.06;31477943;28;20056;-77
2023/09/16 03:15:11;;;;;;;13.10;8.77;;;;;;;19.78;100.00;100607.59;31487246;28;20091;-77
2023/09/16 03:30:17;;;;;;;11.70;7.03;;;;;;;19.77;100.00;100632.84;31480772;28;20056;-76
2023/09/16 03:45:19;;;;;;;11.27;6.97;;;;;;;19.60;100.00;100663.56;31471188;28;20052;-77
2023/09/16 04:00:30;;;;;;;17.95;8.45;;;;;;;19.58;100.00;100685.28;31476240;28;20055;-75
2023/09/16 04:15:32;;;;;;;15.13;8.97;;;;;;;19.66;100.00;100689.22;31475222;28;20048;-77
2023/09/16 04:30:39;;;;;;;12.52;7.95;;;;;;;19.68;100.00;100735.56;31473862;28;20057;-77
2023/09/16 04:45:44;;;;;;;12.00;7.85;;;;;;;19.84;100.00;100773.75;31470993;28;20076;-77
2023/09/16 05:00:48;;;;;;;9.87;6.63;;;;;;;19.96;100.00;100811.38;31462599;28;20436;-76
2023/09/16 05:15:51;;;;;;;11.80;7.27;;;;;;;20.98;100.00;100828.84;31453892;28;20414;-77
2023/09/16 05:30:56;;;;;;;10.95;6.72;;;;;;;21.89;100.00;100871.41;31494649;28;20049;-76
2023/09/16 05:46:01;;;;;;;9.27;6.80;;;;;;;22.83;100.00;100888.69;31497622;28;20061;-77
2023/09/16 06:01:03;;;;;;;;;;;;;;;23.36;93.95;100918.75;31491992;28;20040;-79
2023/09/16 06:16:07;;;;;;;17.02;7.50;;;;;;;24.64;89.95;100938.53;31519738;28;19924;-87
2023/09/16 06:31:09;;;;;;;10.00;6.90;;;;;;;25.44;82.76;100955.84;31521426;28;20048;-85
2023/09/16 06:46:12;;;;;;;11.80;7.30;;;;;;;25.64;79.13;100959.69;31516524;28;20541;-87
2023/09/16 07:01:14;;;;;;;9.68;6.18;;;;;;;26.62;81.32;100978.97;31529551;28;20513;-82
2023/09/16 07:16:19;;;;;;;17.00;11.63;;;;;;;26.96;74.43;100990.81;31492739;28;20060;-80
2023/09/16 07:31:22;;;;;;;9.55;5.78;;;;;;;27.25;68.35;100995.00;31487314;28;20053;-80
2023/09/16 07:46:24;;;;;;;7.60;5.10;;;;;;;28.37;65.91;100989.50;31489685;28;20095;-84
2023/09/16 08:01:29;;;;;;;7.60;4.70;;;;;;;28.23;59.85;101001.06;31478731;28;20040;-85
2023/09/16 08:16:31;;;;;;;4.78;4.22;;;;;;;29.08;59.38;101016.50;31484418;28;20098;-78
2023/09/16 08:31:33;;;;;;;7.70;4.45;;;;;;;29.53;55.64;101031.47;31485710;28;20102;-77
2023/09/16 08:46:44;;;;;;;8.70;5.75;;;;;;;30.16;51.66;101018.16;31466866;28;20459;-77
2023/09/16 09:01:47;;;;;;;7.63;4.40;;;;;;;30.42;52.60;101025.88;31466137;28;20136;-76
2023/09/16 09:16:51;;;;;;;6.38;4.20;;;;;;;30.82;49.43;101030.25;31470547;28;20144;-75
2023/09/16 09:31:54;;;;;;;5.07;3.92;;;;;;;31.34;48.49;101051.19;31461866;28;20048;-76
2023/09/16 09:46:57;;;;;;;4.97;4.03;;;;;;;31.99;46.83;101051.59;31465989;28;20053;-79
2023/09/16 10:02:03;;;;;;;4.90;3.72;;;;;;;31.85;44.70;101045.28;31457281;28;20481;-77
2023/09/16 10:17:07;;;;;;;5.57;3.47;;;;;;;32.20;43.86;101050.34;31488772;28;20053;-77
2023/09/16 10:32:11;;;;;;;4.15;3.33;;;;;;;32.40;44.06;101050.88;31488903;28;20109;-76
2023/09/16 10:47:17;;;;;;;5.10;3.35;;;;;;;32.81;41.67;101044.50;31486620;28;20079;-79
2023/09/16 11:02:33;;;;;;;3.90;3.35;;;;;;;32.36;40.84;101051.22;31472565;28;20045;-76
2023/09/16 11:17:41;;;;;;;4.03;2.90;;;;;;;32.96;39.31;101057.88;31484589;28;20045;-78
2023/09/16 11:32:56;;;;;;;3.60;2.97;;;;;;;33.99;37.66;101045.41;31490379;28;20145;-77
2023/09/16 11:48:02;;;;;;;3.22;2.50;;;;;;;33.64;37.00;101054.66;31495807;28;20460;-83
2023/09/16 12:03:05;;;;;;;15.43;8.70;;;;;;;30.45;39.83;101033.19;31489895;28;20140;-81
2023/09/16 12:18:07;;;;;;;4.13;2.92;;;;;;;28.77;42.40;101032.56;31515872;28;20105;-81
2023/09/16 12:33:11;;;;;;;5.45;2.75;;;;;;;28.16;43.19;101030.28;31476471;28;20526;-85
2023/09/16 12:48:13;;;;;;;4.60;2.90;;;;;;;27.54;44.56;101037.47;31507684;28;20056;-83
2023/09/16 13:03:15;;;;;;;4.00;2.83;;;;;;;27.54;44.48;101021.50;31507419;28;20098;-89
2023/09/16 13:18:19;;;;;;;5.67;3.13;;;;;;;27.31;43.96;101020.84;31521147;28;20060;-85
2023/09/16 13:33:53;;;;;;;4.68;3.10;;;;;;;27.11;43.82;101024.72;31501347;28;20044;-91
2023/09/16 13:48:57;;;;;;;5.80;3.45;;;;;;;27.10;44.75;101028.00;31509533;28;20459;-85
2023/09/16 14:04:01;;;;;;;3.83;3.03;;;;;;;26.74;44.80;101043.75;31504975;28;20049;-84
2023/09/16 14:19:03;;;;;;;4.93;3.15;;;;;;;26.59;44.49;101051.63;31517396;28;20045;-87
2023/09/16 14:34:53;;;;;;;4.53;3.33;;;;;;;26.61;45.04;101049.09;31519345;28;20131;-92
2023/09/16 14:49:58;;;;;;;4.70;3.55;;;;;;;26.47;45.25;101046.03;31472059;28;20131;-90
2023/09/16 15:05:00;;;;;;;5.50;4.15;;;;;;;26.42;45.94;101055.19;31519480;28;20076;-82
2023/09/16 15:20:03;;;;;;;4.83;3.43;;;;;;;26.16;46.50;101047.03;31523258;28;20049;-82
2023/09/16 15:35:05;;;;;;;6.77;4.23;;;;;;;26.09;47.22;101039.16;31509166;28;20061;-82
2023/09/16 15:50:08;;;;;;;7.27;4.87;;;;;;;25.82;47.84;101048.22;31509762;28;20059;-83
2023/09/16 16:05:10;;;;;;;6.07;3.93;;;;;;;25.61;48.53;101055.19;31487330;28;20399;-82
2023/09/16 16:20:13;;;;;;;12.23;8.38;;;;;;;25.46;49.41;101056.16;31498292;28;20050;-82
2023/09/16 16:35:15;;;;;;;7.00;4.72;;;;;;;25.20;50.52;101083.31;31493204;28;20045;-83
2023/09/16 16:50:17;;;;;;;7.85;5.63;;;;;;;24.76;53.15;101090.06;31475748;28;20059;-83
2023/09/16 17:05:22;;;;;;;9.25;6.50;;;;;;;24.43;54.33;101106.41;31476395;28;20131;-82
2023/09/16 17:20:27;;;;;;;16.08;10.32;;;;;;;24.41;55.02;101114.47;31492931;28;20098;-83
2023/09/16 17:35:33;;;;;;;11.75;7.30;;;;;;;23.99;57.14;101124.09;31518324;28;20064;-85
2023/09/16 17:50:35;;;;;;;14.30;8.25;;;;;;;23.67;58.83;101130.75;31522528;28;20060;-85
2023/09/16 18:05:37;;;;;;;13.70;8.13;;;;;;;23.33;61.06;101135.81;31520728;28;20116;-85
2023/09/16 18:20:42;;;;;;;17.35;9.27;;;;;;;23.07;62.93;101141.22;31536240;28;20047;-80
2023/09/16 18:35:44;;;;;;;19.70;9.63;;;;;;;22.95;64.44;101144.28;31496005;28;20110;-81
2023/09/16 18:50:47;;;;;;;15.02;9.98;;;;;;;22.79;66.42;101149.06;31497075;28;20041;-83
2023/09/16 19:05:49;;;;;;;18.58;10.75;;;;;;;22.55;68.61;101156.66;31493684;28;20048;-83
2023/09/16 19:20:51;;;;;;;14.35;8.77;;;;;;;22.49;71.10;101153.03;31506733;28;20547;-81
2023/09/16 19:35:54;;;;;;;10.65;7.00;;;;;;;22.22;73.31;101144.97;31491349;28;20143;-81
2023/09/16 19:50:56;;;;;;;12.50;7.33;;;;;;;22.03;75.29;101150.66;31498548;28;20047;-82
2023/09/16 20:05:59;;;;;;;9.68;6.70;;;;;;;21.89;76.69;101137.53;31480717;28;20072;-82
2023/09/16 20:21:01;;;;;;;10.98;7.35;;;;;;;21.81;78.35;101155.69;31493704;28;20048;-83
2023/09/16 20:36:04;;;;;;;13.68;8.55;;;;;;;21.86;79.09;101173.63;31490118;28;20071;-83
2023/09/16 20:51:07;;;;;;;12.63;6.13;;;;;;;21.69;79.96;101159.47;31468990;28;20048;-83
2023/09/16 21:06:09;;;;;;;15.07;7.30;;;;;;;21.54;81.00;101162.13;31477533;28;20136;-83
2023/09/16 21:21:12;;;;;;;45.22;21.17;;;;;;;21.40;82.73;101162.84;31471152;28;20367;-82
2023/09/16 21:36:14;;;;;;;11.52;6.93;;;;;;;21.36;82.76;101149.19;31477959;28;20114;-83
2023/09/16 21:51:16;;;;;;;13.80;9.57;;;;;;;21.31;82.68;101149.06;31472785;28;20085;-81
2023/09/16 22:06:18;;;;;;;16.77;9.27;;;;;;;21.13;84.77;101158.16;31480890;28;20139;-82
2023/09/16 22:21:20;;;;;;;17.83;9.20;;;;;;;20.80;86.04;101162.84;31489324;28;20413;-83
2023/09/16 22:36:24;;;;;;;25.02;11.50;;;;;;;20.54;88.07;101157.69;31489478;28;20060;-83
2023/09/16 22:51:26;;;;;;;22.43;11.07;;;;;;;20.50;88.45;101151.56;31476950;28;20056;-82
2023/09/16 23:06:31;;;;;;;26.70;11.32;;;;;;;20.38;90.26;101156.00;31490256;28;20106;-82
2023/09/16 23:21:33;;;;;;;25.77;14.20;;;;;;;20.49;89.38;101150.03;31490223;28;20055;-82
2023/09/16 23:36:35;;;;;;;74.47;27.43;;;;;;;20.24;91.65;101142.81;31470702;28;20489;-81
2023/09/16 23:51:37;;;;;;;18.95;10.35;;;;;;;20.14;93.36;101140.50;31472700;28;20451;-81
